Tacna, Arizona
Current Conditions -  °F | °C
As of 12:57 PM on Thursday 23 Oct 2014 (Local Time) from KNYL Reporting Station
Few Clouds Few Clouds  
Wind Chill: 94°   Ceiling: Unl
Heat Index: 94°   Visibility: 10mi
Dew Point: 45°   Wind: 3mph
Humidity: 18%   Direction: 360°N
Pressure: 29.92"   Gusts: NA
Location:  32.7°N, 113.96°W
Report Text: KNYL 231957Z 36003KT 10SM FEW300 34/07 A2992 RMK AO2 SLP130 T03440072
Loading
Personal Weather Stations






























Interactive Weather Map
Tropical Storm Tracking
New forecast layout! Learn more

10-Day Weather Forecast

Advertisements
Track Severe Weather on mobile